Horton, Kentucky
Current Conditions -  °F | °C
As of 4:55 AM on Thursday 23 Oct 2014 (Local Time) from K2I0 Reporting Station
Haze Haze  
Wind Chill: 36°   Ceiling: 700
Heat Index: 36°   Visibility: 1mi
Dew Point: 36°   Wind: 0mph
Humidity: 100%   Direction: NA
Pressure: 30.25"   Gusts: NA
Location:  37.3559°N, 86.8747°W
Report Text: K2I0 230955Z AUTO 00000KT 1SM BR VV007 02/02 A3025 RMK AO2 T00240024
Loading
Personal Weather Stations






























Interactive Weather Map
Tropical Storm Tracking
New forecast layout! Learn more

10-Day Weather Forecast

Advertisements
Track Severe Weather on mobile